sensor_id;sensor_type;location;lat;lon;timestamp;P1;durP1;ratioP1;P2;durP2;ratioP2
30647;SDS011;17683;53.360;9.736;2023-07-13T00:01:50;3.55;;;2.40;;
30647;SDS011;17683;53.360;9.736;2023-07-13T00:04:20;5.03;;;2.72;;
30647;SDS011;17683;53.360;9.736;2023-07-13T00:06:48;4.55;;;2.55;;
30647;SDS011;17683;53.360;9.736;2023-07-13T00:09:15;3.53;;;3.03;;
30647;SDS011;17683;53.360;9.736;2023-07-13T00:11:42;4.25;;;2.78;;
30647;SDS011;17683;53.360;9.736;2023-07-13T00:14:09;3.92;;;2.70;;
30647;SDS011;17683;53.360;9.736;2023-07-13T00:16:36;3.63;;;2.72;;
30647;SDS011;17683;53.360;9.736;2023-07-13T00:19:04;5.43;;;2.35;;
30647;SDS011;17683;53.360;9.736;2023-07-13T00:21:30;5.95;;;2.83;;
30647;SDS011;17683;53.360;9.736;2023-07-13T00:23:56;3.67;;;2.17;;
30647;SDS011;17683;53.360;9.736;2023-07-13T00:26:22;5.35;;;2.00;;
30647;SDS011;17683;53.360;9.736;2023-07-13T00:28:48;3.55;;;1.92;;
30647;SDS011;17683;53.360;9.736;2023-07-13T00:31:13;2.38;;;1.92;;
30647;SDS011;17683;53.360;9.736;2023-07-13T00:33:39;2.45;;;1.88;;
30647;SDS011;17683;53.360;9.736;2023-07-13T00:36:07;3.30;;;1.98;;
30647;SDS011;17683;53.360;9.736;2023-07-13T00:38:33;2.65;;;1.80;;
30647;SDS011;17683;53.360;9.736;2023-07-13T00:40:59;3.25;;;2.00;;
30647;SDS011;17683;53.360;9.736;2023-07-13T00:43:26;3.42;;;1.92;;
30647;SDS011;17683;53.360;9.736;2023-07-13T00:48:21;2.67;;;2.13;;
30647;SDS011;17683;53.360;9.736;2023-07-13T00:50:53;5.63;;;2.40;;
30647;SDS011;17683;53.360;9.736;2023-07-13T00:53:22;3.20;;;2.45;;
30647;SDS011;17683;53.360;9.736;2023-07-13T00:55:50;3.45;;;2.22;;
30647;SDS011;17683;53.360;9.736;2023-07-13T00:58:17;2.63;;;2.28;;
30647;SDS011;17683;53.360;9.736;2023-07-13T01:00:43;2.70;;;2.00;;
30647;SDS011;17683;53.360;9.736;2023-07-13T01:03:10;3.42;;;1.80;;
30647;SDS011;17683;53.360;9.736;2023-07-13T01:05:36;3.20;;;2.33;;
30647;SDS011;17683;53.360;9.736;2023-07-13T01:08:02;2.33;;;2.00;;
30647;SDS011;17683;53.360;9.736;2023-07-13T01:10:30;3.22;;;2.30;;
30647;SDS011;17683;53.360;9.736;2023-07-13T01:13:03;2.35;;;2.15;;
30647;SDS011;17683;53.360;9.736;2023-07-13T01:15:37;2.47;;;2.20;;
30647;SDS011;17683;53.360;9.736;2023-07-13T01:18:16;6.68;;;2.50;;
30647;SDS011;17683;53.360;9.736;2023-07-13T01:23:18;3.58;;;2.05;;
30647;SDS011;17683;53.360;9.736;2023-07-13T01:25:44;4.10;;;2.10;;
30647;SDS011;17683;53.360;9.736;2023-07-13T01:28:10;3.42;;;2.42;;
30647;SDS011;17683;53.360;9.736;2023-07-13T01:30:36;3.05;;;2.75;;
30647;SDS011;17683;53.360;9.736;2023-07-13T01:33:05;3.33;;;2.58;;
30647;SDS011;17683;53.360;9.736;2023-07-13T01:35:32;4.60;;;4.00;;
30647;SDS011;17683;53.360;9.736;2023-07-13T01:37:58;4.38;;;3.38;;
30647;SDS011;17683;53.360;9.736;2023-07-13T01:40:26;3.45;;;3.15;;
30647;SDS011;17683;53.360;9.736;2023-07-13T01:42:53;5.22;;;3.38;;
30647;SDS011;17683;53.360;9.736;2023-07-13T01:45:18;5.85;;;4.18;;
30647;SDS011;17683;53.360;9.736;2023-07-13T01:47:44;5.82;;;4.28;;
30647;SDS011;17683;53.360;9.736;2023-07-13T01:50:10;4.40;;;4.00;;
30647;SDS011;17683;53.360;9.736;2023-07-13T01:52:35;9.68;;;5.45;;
30647;SDS011;17683;53.360;9.736;2023-07-13T01:55:01;6.70;;;4.10;;
30647;SDS011;17683;53.360;9.736;2023-07-13T01:57:27;7.20;;;4.15;;
30647;SDS011;17683;53.360;9.736;2023-07-13T01:59:53;8.52;;;4.65;;
30647;SDS011;17683;53.360;9.736;2023-07-13T02:02:19;7.18;;;4.57;;
30647;SDS011;17683;53.360;9.736;2023-07-13T02:04:44;4.97;;;3.88;;
30647;SDS011;17683;53.360;9.736;2023-07-13T02:07:10;5.00;;;4.28;;
30647;SDS011;17683;53.360;9.736;2023-07-13T02:09:36;7.13;;;4.18;;
30647;SDS011;17683;53.360;9.736;2023-07-13T02:12:02;4.22;;;3.83;;
30647;SDS011;17683;53.360;9.736;2023-07-13T02:14:28;5.40;;;3.65;;
30647;SDS011;17683;53.360;9.736;2023-07-13T02:16:53;4.68;;;3.63;;
30647;SDS011;17683;53.360;9.736;2023-07-13T02:19:19;5.50;;;4.00;;
30647;SDS011;17683;53.360;9.736;2023-07-13T02:21:45;6.30;;;3.95;;
30647;SDS011;17683;53.360;9.736;2023-07-13T02:24:11;10.95;;;4.80;;
30647;SDS011;17683;53.360;9.736;2023-07-13T02:26:42;5.72;;;4.40;;
30647;SDS011;17683;53.360;9.736;2023-07-13T02:29:08;6.22;;;4.57;;
30647;SDS011;17683;53.360;9.736;2023-07-13T02:31:34;9.77;;;4.22;;
30647;SDS011;17683;53.360;9.736;2023-07-13T02:34:00;7.55;;;4.22;;
30647;SDS011;17683;53.360;9.736;2023-07-13T02:36:26;5.13;;;4.32;;
30647;SDS011;17683;53.360;9.736;2023-07-13T02:38:52;8.30;;;4.47;;
30647;SDS011;17683;53.360;9.736;2023-07-13T02:41:18;8.93;;;4.65;;
30647;SDS011;17683;53.360;9.736;2023-07-13T02:43:43;6.80;;;4.13;;
30647;SDS011;17683;53.360;9.736;2023-07-13T02:46:09;7.07;;;4.20;;
30647;SDS011;17683;53.360;9.736;2023-07-13T02:48:35;5.75;;;4.53;;
30647;SDS011;17683;53.360;9.736;2023-07-13T02:51:02;6.70;;;4.45;;
30647;SDS011;17683;53.360;9.736;2023-07-13T02:53:28;7.28;;;3.97;;
30647;SDS011;17683;53.360;9.736;2023-07-13T02:55:54;3.60;;;3.30;;
30647;SDS011;17683;53.360;9.736;2023-07-13T02:58:20;4.65;;;3.58;;
30647;SDS011;17683;53.360;9.736;2023-07-13T03:00:46;8.82;;;4.20;;
30647;SDS011;17683;53.360;9.736;2023-07-13T03:03:12;7.57;;;3.83;;
30647;SDS011;17683;53.360;9.736;2023-07-13T03:05:42;6.68;;;4.32;;
30647;SDS011;17683;53.360;9.736;2023-07-13T03:10:41;5.38;;;4.47;;
30647;SDS011;17683;53.360;9.736;2023-07-13T03:13:06;8.65;;;4.80;;
30647;SDS011;17683;53.360;9.736;2023-07-13T03:15:32;4.90;;;4.40;;
30647;SDS011;17683;53.360;9.736;2023-07-13T03:17:58;9.32;;;5.10;;
30647;SDS011;17683;53.360;9.736;2023-07-13T03:20:24;10.38;;;4.80;;
30647;SDS011;17683;53.360;9.736;2023-07-13T03:22:49;8.35;;;3.83;;
30647;SDS011;17683;53.360;9.736;2023-07-13T03:25:15;5.50;;;4.38;;
30647;SDS011;17683;53.360;9.736;2023-07-13T03:27:41;5.30;;;4.15;;
30647;SDS011;17683;53.360;9.736;2023-07-13T03:30:07;7.03;;;4.35;;
30647;SDS011;17683;53.360;9.736;2023-07-13T03:32:33;5.90;;;3.90;;
30647;SDS011;17683;53.360;9.736;2023-07-13T03:34:58;8.30;;;4.82;;
30647;SDS011;17683;53.360;9.736;2023-07-13T03:37:24;8.60;;;4.53;;
30647;SDS011;17683;53.360;9.736;2023-07-13T03:39:50;5.72;;;4.03;;
30647;SDS011;17683;53.360;9.736;2023-07-13T03:42:16;7.25;;;4.88;;
30647;SDS011;17683;53.360;9.736;2023-07-13T03:44:42;8.13;;;5.05;;
30647;SDS011;17683;53.360;9.736;2023-07-13T03:47:11;5.90;;;5.03;;
30647;SDS011;17683;53.360;9.736;2023-07-13T03:49:37;6.47;;;4.43;;
30647;SDS011;17683;53.360;9.736;2023-07-13T03:52:02;7.28;;;4.65;;
30647;SDS011;17683;53.360;9.736;2023-07-13T03:54:28;8.55;;;4.60;;
30647;SDS011;17683;53.360;9.736;2023-07-13T03:56:54;7.38;;;5.28;;
30647;SDS011;17683;53.360;9.736;2023-07-13T03:59:20;5.55;;;4.68;;
30647;SDS011;17683;53.360;9.736;2023-07-13T04:01:45;8.10;;;5.40;;
30647;SDS011;17683;53.360;9.736;2023-07-13T04:04:11;5.30;;;4.80;;
30647;SDS011;17683;53.360;9.736;2023-07-13T04:06:37;7.50;;;5.32;;
30647;SDS011;17683;53.360;9.736;2023-07-13T04:09:03;9.68;;;4.60;;
30647;SDS011;17683;53.360;9.736;2023-07-13T04:11:33;7.97;;;5.03;;
30647;SDS011;17683;53.360;9.736;2023-07-13T04:14:01;6.80;;;5.60;;
30647;SDS011;17683;53.360;9.736;2023-07-13T04:16:27;9.00;;;5.65;;
30647;SDS011;17683;53.360;9.736;2023-07-13T04:18:53;7.13;;;4.85;;
30647;SDS011;17683;53.360;9.736;2023-07-13T04:21:24;8.15;;;5.95;;
30647;SDS011;17683;53.360;9.736;2023-07-13T04:23:49;6.78;;;5.63;;
30647;SDS011;17683;53.360;9.736;2023-07-13T04:26:15;9.52;;;5.78;;
30647;SDS011;17683;53.360;9.736;2023-07-13T04:28:41;8.15;;;5.68;;
30647;SDS011;17683;53.360;9.736;2023-07-13T04:31:07;9.32;;;5.88;;
30647;SDS011;17683;53.360;9.736;2023-07-13T04:33:32;11.13;;;6.15;;
30647;SDS011;17683;53.360;9.736;2023-07-13T04:35:59;10.40;;;6.55;;
30647;SDS011;17683;53.360;9.736;2023-07-13T04:38:27;7.60;;;6.28;;
30647;SDS011;17683;53.360;9.736;2023-07-13T04:40:55;13.77;;;5.88;;
30647;SDS011;17683;53.360;9.736;2023-07-13T04:43:22;13.52;;;6.28;;
30647;SDS011;17683;53.360;9.736;2023-07-13T04:45:49;9.80;;;6.97;;
30647;SDS011;17683;53.360;9.736;2023-07-13T04:48:16;10.35;;;5.93;;
30647;SDS011;17683;53.360;9.736;2023-07-13T04:50:41;11.98;;;7.45;;
30647;SDS011;17683;53.360;9.736;2023-07-13T04:53:08;10.20;;;6.13;;
30647;SDS011;17683;53.360;9.736;2023-07-13T04:55:35;8.25;;;6.57;;
30647;SDS011;17683;53.360;9.736;2023-07-13T04:58:01;13.35;;;6.22;;
30647;SDS011;17683;53.360;9.736;2023-07-13T05:00:27;11.02;;;6.43;;
30647;SDS011;17683;53.360;9.736;2023-07-13T05:02:54;9.25;;;6.40;;
30647;SDS011;17683;53.360;9.736;2023-07-13T05:05:22;8.85;;;5.63;;
30647;SDS011;17683;53.360;9.736;2023-07-13T05:07:48;12.77;;;6.40;;
30647;SDS011;17683;53.360;9.736;2023-07-13T05:10:14;14.45;;;5.90;;
30647;SDS011;17683;53.360;9.736;2023-07-13T05:12:40;13.93;;;5.50;;
30647;SDS011;17683;53.360;9.736;2023-07-13T05:15:06;8.70;;;5.38;;
30647;SDS011;17683;53.360;9.736;2023-07-13T05:17:32;11.75;;;5.95;;
30647;SDS011;17683;53.360;9.736;2023-07-13T05:19:58;13.80;;;5.75;;
30647;SDS011;17683;53.360;9.736;2023-07-13T05:22:23;10.65;;;5.82;;
30647;SDS011;17683;53.360;9.736;2023-07-13T05:24:49;16.23;;;5.80;;
30647;SDS011;17683;53.360;9.736;2023-07-13T05:27:15;15.25;;;4.93;;
30647;SDS011;17683;53.360;9.736;2023-07-13T05:29:41;11.73;;;5.30;;
30647;SDS011;17683;53.360;9.736;2023-07-13T05:32:06;17.63;;;6.32;;
30647;SDS011;17683;53.360;9.736;2023-07-13T05:34:32;17.92;;;6.70;;
30647;SDS011;17683;53.360;9.736;2023-07-13T05:36:58;13.13;;;5.60;;
30647;SDS011;17683;53.360;9.736;2023-07-13T05:39:23;11.05;;;5.45;;
30647;SDS011;17683;53.360;9.736;2023-07-13T05:41:51;9.85;;;4.82;;
30647;SDS011;17683;53.360;9.736;2023-07-13T05:44:16;13.52;;;5.53;;
30647;SDS011;17683;53.360;9.736;2023-07-13T05:46:42;10.15;;;5.57;;
30647;SDS011;17683;53.360;9.736;2023-07-13T05:49:08;10.52;;;5.40;;
30647;SDS011;17683;53.360;9.736;2023-07-13T05:51:33;12.68;;;5.30;;
30647;SDS011;17683;53.360;9.736;2023-07-13T05:53:59;13.73;;;5.60;;
30647;SDS011;17683;53.360;9.736;2023-07-13T05:56:25;13.52;;;4.78;;
30647;SDS011;17683;53.360;9.736;2023-07-13T05:58:51;13.77;;;4.63;;
30647;SDS011;17683;53.360;9.736;2023-07-13T06:01:17;12.95;;;4.90;;
30647;SDS011;17683;53.360;9.736;2023-07-13T06:03:45;12.93;;;4.78;;
30647;SDS011;17683;53.360;9.736;2023-07-13T06:06:11;16.25;;;5.00;;
30647;SDS011;17683;53.360;9.736;2023-07-13T06:08:38;11.93;;;4.30;;
30647;SDS011;17683;53.360;9.736;2023-07-13T06:11:04;20.13;;;5.78;;
30647;SDS011;17683;53.360;9.736;2023-07-13T06:13:36;20.60;;;5.30;;
30647;SDS011;17683;53.360;9.736;2023-07-13T06:16:02;15.45;;;4.90;;
30647;SDS011;17683;53.360;9.736;2023-07-13T06:18:32;14.05;;;5.57;;
30647;SDS011;17683;53.360;9.736;2023-07-13T06:20:58;12.23;;;4.10;;
30647;SDS011;17683;53.360;9.736;2023-07-13T06:23:24;22.25;;;5.13;;
30647;SDS011;17683;53.360;9.736;2023-07-13T06:25:50;14.68;;;5.20;;
30647;SDS011;17683;53.360;9.736;2023-07-13T06:28:16;10.60;;;3.88;;
30647;SDS011;17683;53.360;9.736;2023-07-13T06:30:42;16.77;;;4.78;;
30647;SDS011;17683;53.360;9.736;2023-07-13T06:33:08;15.73;;;4.88;;
30647;SDS011;17683;53.360;9.736;2023-07-13T06:35:33;14.85;;;5.28;;
30647;SDS011;17683;53.360;9.736;2023-07-13T06:37:59;18.92;;;4.43;;
30647;SDS011;17683;53.360;9.736;2023-07-13T06:40:25;13.63;;;4.43;;
30647;SDS011;17683;53.360;9.736;2023-07-13T06:42:53;14.30;;;3.85;;
30647;SDS011;17683;53.360;9.736;2023-07-13T06:45:18;15.88;;;4.40;;
30647;SDS011;17683;53.360;9.736;2023-07-13T06:47:44;16.60;;;4.82;;
30647;SDS011;17683;53.360;9.736;2023-07-13T06:50:10;16.65;;;4.70;;
30647;SDS011;17683;53.360;9.736;2023-07-13T06:52:35;17.20;;;3.75;;
30647;SDS011;17683;53.360;9.736;2023-07-13T06:55:01;15.18;;;4.28;;
30647;SDS011;17683;53.360;9.736;2023-07-13T06:57:28;19.42;;;5.35;;
30647;SDS011;17683;53.360;9.736;2023-07-13T06:59:53;13.55;;;4.32;;
30647;SDS011;17683;53.360;9.736;2023-07-13T07:02:19;9.38;;;3.75;;
30647;SDS011;17683;53.360;9.736;2023-07-13T07:04:45;16.67;;;4.53;;
30647;SDS011;17683;53.360;9.736;2023-07-13T07:07:10;15.23;;;3.90;;
30647;SDS011;17683;53.360;9.736;2023-07-13T07:09:36;17.67;;;4.00;;
30647;SDS011;17683;53.360;9.736;2023-07-13T07:12:02;11.95;;;4.07;;
30647;SDS011;17683;53.360;9.736;2023-07-13T07:14:28;12.00;;;4.00;;
30647;SDS011;17683;53.360;9.736;2023-07-13T07:16:54;12.60;;;3.55;;
30647;SDS011;17683;53.360;9.736;2023-07-13T07:19:20;15.27;;;5.13;;
30647;SDS011;17683;53.360;9.736;2023-07-13T07:21:46;11.68;;;4.95;;
30647;SDS011;17683;53.360;9.736;2023-07-13T07:24:11;20.27;;;5.40;;
30647;SDS011;17683;53.360;9.736;2023-07-13T07:26:37;13.50;;;4.55;;
30647;SDS011;17683;53.360;9.736;2023-07-13T07:29:03;15.73;;;3.92;;
30647;SDS011;17683;53.360;9.736;2023-07-13T07:31:28;14.45;;;4.65;;
30647;SDS011;17683;53.360;9.736;2023-07-13T07:33:54;17.27;;;5.00;;
30647;SDS011;17683;53.360;9.736;2023-07-13T07:36:20;15.43;;;4.85;;
30647;SDS011;17683;53.360;9.736;2023-07-13T07:38:45;13.93;;;4.40;;
30647;SDS011;17683;53.360;9.736;2023-07-13T07:41:13;20.13;;;4.65;;
30647;SDS011;17683;53.360;9.736;2023-07-13T07:43:39;10.80;;;4.75;;
30647;SDS011;17683;53.360;9.736;2023-07-13T07:46:04;18.40;;;4.60;;
30647;SDS011;17683;53.360;9.736;2023-07-13T07:48:30;14.05;;;4.45;;
30647;SDS011;17683;53.360;9.736;2023-07-13T07:50:56;14.40;;;4.78;;
30647;SDS011;17683;53.360;9.736;2023-07-13T07:53:22;10.60;;;3.78;;
30647;SDS011;17683;53.360;9.736;2023-07-13T07:55:48;12.98;;;3.67;;
30647;SDS011;17683;53.360;9.736;2023-07-13T07:58:14;13.45;;;4.53;;
30647;SDS011;17683;53.360;9.736;2023-07-13T08:00:40;10.25;;;3.58;;
30647;SDS011;17683;53.360;9.736;2023-07-13T08:03:06;8.35;;;4.20;;
30647;SDS011;17683;53.360;9.736;2023-07-13T08:05:31;13.05;;;4.07;;
30647;SDS011;17683;53.360;9.736;2023-07-13T08:08:00;13.95;;;4.18;;
30647;SDS011;17683;53.360;9.736;2023-07-13T08:10:26;18.08;;;4.80;;
30647;SDS011;17683;53.360;9.736;2023-07-13T08:12:52;14.63;;;4.55;;
30647;SDS011;17683;53.360;9.736;2023-07-13T08:15:18;13.23;;;4.70;;
30647;SDS011;17683;53.360;9.736;2023-07-13T08:17:45;11.02;;;3.72;;
30647;SDS011;17683;53.360;9.736;2023-07-13T08:20:14;15.30;;;4.28;;
30647;SDS011;17683;53.360;9.736;2023-07-13T08:22:40;8.90;;;4.05;;
30647;SDS011;17683;53.360;9.736;2023-07-13T08:25:06;14.93;;;4.88;;
30647;SDS011;17683;53.360;9.736;2023-07-13T08:27:32;16.27;;;4.35;;
30647;SDS011;17683;53.360;9.736;2023-07-13T08:29:58;16.00;;;5.18;;
30647;SDS011;17683;53.360;9.736;2023-07-13T08:32:24;13.98;;;4.43;;
30647;SDS011;17683;53.360;9.736;2023-07-13T08:34:50;27.95;;;4.50;;
30647;SDS011;17683;53.360;9.736;2023-07-13T08:37:16;12.85;;;5.43;;
30647;SDS011;17683;53.360;9.736;2023-07-13T08:39:42;7.10;;;4.10;;
30647;SDS011;17683;53.360;9.736;2023-07-13T08:42:18;7.80;;;4.35;;
30647;SDS011;17683;53.360;9.736;2023-07-13T08:47:38;14.10;;;4.05;;
30647;SDS011;17683;53.360;9.736;2023-07-13T08:50:27;11.60;;;3.97;;
30647;SDS011;17683;53.360;9.736;2023-07-13T08:52:56;11.80;;;3.90;;
30647;SDS011;17683;53.360;9.736;2023-07-13T08:55:30;13.93;;;4.82;;
30647;SDS011;17683;53.360;9.736;2023-07-13T08:58:09;13.45;;;4.10;;
30647;SDS011;17683;53.360;9.736;2023-07-13T09:00:41;11.07;;;3.97;;
30647;SDS011;17683;53.360;9.736;2023-07-13T09:03:12;11.32;;;5.13;;
30647;SDS011;17683;53.360;9.736;2023-07-13T09:05:45;16.70;;;4.35;;
30647;SDS011;17683;53.360;9.736;2023-07-13T09:11:08;10.70;;;4.38;;
30647;SDS011;17683;53.360;9.736;2023-07-13T09:14:00;13.65;;;4.78;;
30647;SDS011;17683;53.360;9.736;2023-07-13T09:16:36;11.55;;;3.78;;
30647;SDS011;17683;53.360;9.736;2023-07-13T09:19:04;7.50;;;2.97;;
30647;SDS011;17683;53.360;9.736;2023-07-13T09:21:33;9.90;;;3.72;;
30647;SDS011;17683;53.360;9.736;2023-07-13T09:24:26;10.35;;;3.55;;
30647;SDS011;17683;53.360;9.736;2023-07-13T09:26:55;9.65;;;3.10;;
30647;SDS011;17683;53.360;9.736;2023-07-13T09:29:30;9.32;;;4.03;;
30647;SDS011;17683;53.360;9.736;2023-07-13T09:32:01;7.88;;;3.22;;
30647;SDS011;17683;53.360;9.736;2023-07-13T09:34:31;7.43;;;3.75;;
30647;SDS011;17683;53.360;9.736;2023-07-13T09:36:58;11.90;;;4.10;;
30647;SDS011;17683;53.360;9.736;2023-07-13T09:39:28;14.60;;;5.05;;
30647;SDS011;17683;53.360;9.736;2023-07-13T09:44:55;8.43;;;3.92;;
30647;SDS011;17683;53.360;9.736;2023-07-13T09:47:24;8.90;;;4.40;;
30647;SDS011;17683;53.360;9.736;2023-07-13T09:49:59;7.18;;;3.65;;
30647;SDS011;17683;53.360;9.736;2023-07-13T09:52:26;12.80;;;3.60;;
30647;SDS011;17683;53.360;9.736;2023-07-13T09:54:53;10.93;;;4.00;;
30647;SDS011;17683;53.360;9.736;2023-07-13T09:57:25;9.43;;;3.95;;
30647;SDS011;17683;53.360;9.736;2023-07-13T09:59:53;11.45;;;3.83;;
30647;SDS011;17683;53.360;9.736;2023-07-13T10:04:58;10.73;;;3.80;;
30647;SDS011;17683;53.360;9.736;2023-07-13T10:07:29;6.05;;;3.70;;
30647;SDS011;17683;53.360;9.736;2023-07-13T10:09:57;6.03;;;3.63;;
30647;SDS011;17683;53.360;9.736;2023-07-13T10:12:25;6.03;;;3.60;;
30647;SDS011;17683;53.360;9.736;2023-07-13T10:14:56;7.22;;;3.30;;
30647;SDS011;17683;53.360;9.736;2023-07-13T10:17:29;9.32;;;3.47;;
30647;SDS011;17683;53.360;9.736;2023-07-13T10:20:05;9.07;;;3.50;;
30647;SDS011;17683;53.360;9.736;2023-07-13T10:22:52;6.88;;;3.08;;
30647;SDS011;17683;53.360;9.736;2023-07-13T10:25:26;6.20;;;2.95;;
30647;SDS011;17683;53.360;9.736;2023-07-13T10:28:00;6.10;;;3.15;;
30647;SDS011;17683;53.360;9.736;2023-07-13T10:30:31;6.47;;;3.05;;
30647;SDS011;17683;53.360;9.736;2023-07-13T10:33:03;7.90;;;3.75;;
30647;SDS011;17683;53.360;9.736;2023-07-13T10:35:36;8.40;;;3.22;;
30647;SDS011;17683;53.360;9.736;2023-07-13T10:38:07;6.65;;;2.95;;
30647;SDS011;17683;53.360;9.736;2023-07-13T10:40:59;5.82;;;2.50;;
30647;SDS011;17683;53.360;9.736;2023-07-13T10:43:47;7.63;;;2.30;;
30647;SDS011;17683;53.360;9.736;2023-07-13T10:46:18;5.30;;;2.70;;
30647;SDS011;17683;53.360;9.736;2023-07-13T10:48:46;3.50;;;2.25;;
30647;SDS011;17683;53.360;9.736;2023-07-13T10:51:17;7.18;;;2.67;;
30647;SDS011;17683;53.360;9.736;2023-07-13T10:53:46;3.72;;;2.10;;
30647;SDS011;17683;53.360;9.736;2023-07-13T10:56:28;6.53;;;2.45;;
30647;SDS011;17683;53.360;9.736;2023-07-13T11:02:25;7.13;;;2.70;;
30647;SDS011;17683;53.360;9.736;2023-07-13T11:04:47;6.47;;;2.40;;
30647;SDS011;17683;53.360;9.736;2023-07-13T11:16:00;4.35;;;2.20;;
30647;SDS011;17683;53.360;9.736;2023-07-13T11:18:25;5.45;;;1.90;;
30647;SDS011;17683;53.360;9.736;2023-07-13T11:20:51;7.85;;;2.30;;
30647;SDS011;17683;53.360;9.736;2023-07-13T11:25:45;9.02;;;2.60;;
30647;SDS011;17683;53.360;9.736;2023-07-13T11:30:41;4.38;;;1.80;;
30647;SDS011;17683;53.360;9.736;2023-07-13T11:33:20;7.22;;;2.67;;
30647;SDS011;17683;53.360;9.736;2023-07-13T11:38:19;9.73;;;2.67;;
30647;SDS011;17683;53.360;9.736;2023-07-13T11:40:47;3.22;;;1.77;;
30647;SDS011;17683;53.360;9.736;2023-07-13T11:43:16;4.63;;;2.25;;
30647;SDS011;17683;53.360;9.736;2023-07-13T11:45:43;5.20;;;1.90;;
30647;SDS011;17683;53.360;9.736;2023-07-13T11:48:19;6.38;;;2.50;;
30647;SDS011;17683;53.360;9.736;2023-07-13T11:50:50;5.60;;;1.73;;
30647;SDS011;17683;53.360;9.736;2023-07-13T11:53:37;3.65;;;1.98;;
30647;SDS011;17683;53.360;9.736;2023-07-13T11:56:05;4.32;;;2.10;;
30647;SDS011;17683;53.360;9.736;2023-07-13T11:58:32;5.40;;;2.25;;
30647;SDS011;17683;53.360;9.736;2023-07-13T12:00:59;11.32;;;2.03;;
30647;SDS011;17683;53.360;9.736;2023-07-13T12:03:29;6.10;;;1.80;;
30647;SDS011;17683;53.360;9.736;2023-07-13T12:08:31;7.22;;;1.92;;
30647;SDS011;17683;53.360;9.736;2023-07-13T12:11:05;6.22;;;2.42;;
30647;SDS011;17683;53.360;9.736;2023-07-13T12:13:39;7.13;;;2.28;;
30647;SDS011;17683;53.360;9.736;2023-07-13T12:16:15;6.03;;;2.35;;
30647;SDS011;17683;53.360;9.736;2023-07-13T12:18:47;9.32;;;2.22;;
30647;SDS011;17683;53.360;9.736;2023-07-13T12:21:16;5.72;;;2.00;;
30647;SDS011;17683;53.360;9.736;2023-07-13T12:23:43;5.93;;;2.30;;
30647;SDS011;17683;53.360;9.736;2023-07-13T12:26:12;2.78;;;1.92;;
30647;SDS011;17683;53.360;9.736;2023-07-13T12:28:48;3.60;;;2.08;;
30647;SDS011;17683;53.360;9.736;2023-07-13T12:34:18;5.07;;;1.98;;
30647;SDS011;17683;53.360;9.736;2023-07-13T12:36:50;4.75;;;1.98;;
30647;SDS011;17683;53.360;9.736;2023-07-13T12:39:21;4.88;;;1.73;;
30647;SDS011;17683;53.360;9.736;2023-07-13T12:41:51;2.15;;;1.50;;
30647;SDS011;17683;53.360;9.736;2023-07-13T12:44:19;5.05;;;2.00;;
30647;SDS011;17683;53.360;9.736;2023-07-13T12:46:58;3.85;;;2.15;;
30647;SDS011;17683;53.360;9.736;2023-07-13T12:49:31;3.78;;;1.88;;
30647;SDS011;17683;53.360;9.736;2023-07-13T12:52:02;2.55;;;1.60;;
30647;SDS011;17683;53.360;9.736;2023-07-13T12:54:29;8.75;;;2.10;;
30647;SDS011;17683;53.360;9.736;2023-07-13T12:56:56;4.13;;;1.80;;
30647;SDS011;17683;53.360;9.736;2023-07-13T12:59:25;2.63;;;1.52;;
30647;SDS011;17683;53.360;9.736;2023-07-13T13:01:54;3.88;;;2.25;;
30647;SDS011;17683;53.360;9.736;2023-07-13T13:04:20;2.58;;;1.58;;
30647;SDS011;17683;53.360;9.736;2023-07-13T13:06:48;3.75;;;1.73;;
30647;SDS011;17683;53.360;9.736;2023-07-13T13:09:15;4.78;;;2.22;;
30647;SDS011;17683;53.360;9.736;2023-07-13T13:11:43;5.15;;;1.35;;
30647;SDS011;17683;53.360;9.736;2023-07-13T13:14:09;4.15;;;2.17;;
30647;SDS011;17683;53.360;9.736;2023-07-13T13:16:35;2.97;;;1.40;;
30647;SDS011;17683;53.360;9.736;2023-07-13T13:19:12;2.58;;;1.65;;
30647;SDS011;17683;53.360;9.736;2023-07-13T13:21:41;3.97;;;1.63;;
30647;SDS011;17683;53.360;9.736;2023-07-13T13:24:12;3.28;;;2.20;;
30647;SDS011;17683;53.360;9.736;2023-07-13T13:26:40;5.30;;;1.90;;
30647;SDS011;17683;53.360;9.736;2023-07-13T13:29:13;3.10;;;1.75;;
30647;SDS011;17683;53.360;9.736;2023-07-13T13:31:41;6.95;;;1.92;;
30647;SDS011;17683;53.360;9.736;2023-07-13T13:34:08;3.63;;;1.92;;
30647;SDS011;17683;53.360;9.736;2023-07-13T13:36:36;2.45;;;1.75;;
30647;SDS011;17683;53.360;9.736;2023-07-13T13:39:02;5.03;;;2.35;;
30647;SDS011;17683;53.360;9.736;2023-07-13T13:41:31;4.45;;;2.20;;
30647;SDS011;17683;53.360;9.736;2023-07-13T13:43:57;5.07;;;2.22;;
30647;SDS011;17683;53.360;9.736;2023-07-13T13:46:24;7.05;;;2.28;;
30647;SDS011;17683;53.360;9.736;2023-07-13T13:48:50;3.53;;;2.05;;
30647;SDS011;17683;53.360;9.736;2023-07-13T13:51:17;3.97;;;1.95;;
30647;SDS011;17683;53.360;9.736;2023-07-13T13:53:46;5.90;;;2.65;;
30647;SDS011;17683;53.360;9.736;2023-07-13T13:56:13;4.25;;;1.98;;
30647;SDS011;17683;53.360;9.736;2023-07-13T13:58:39;2.78;;;1.92;;
30647;SDS011;17683;53.360;9.736;2023-07-13T14:01:10;2.50;;;1.60;;
30647;SDS011;17683;53.360;9.736;2023-07-13T14:03:48;6.10;;;1.80;;
30647;SDS011;17683;53.360;9.736;2023-07-13T14:06:15;2.30;;;1.60;;
30647;SDS011;17683;53.360;9.736;2023-07-13T14:08:41;3.30;;;1.70;;
30647;SDS011;17683;53.360;9.736;2023-07-13T14:11:15;3.45;;;1.70;;
30647;SDS011;17683;53.360;9.736;2023-07-13T14:13:43;2.95;;;1.73;;
30647;SDS011;17683;53.360;9.736;2023-07-13T14:16:16;4.25;;;1.85;;
30647;SDS011;17683;53.360;9.736;2023-07-13T14:18:44;1.88;;;1.73;;
30647;SDS011;17683;53.360;9.736;2023-07-13T14:21:12;2.08;;;1.50;;
30647;SDS011;17683;53.360;9.736;2023-07-13T14:23:47;3.55;;;1.67;;
30647;SDS011;17683;53.360;9.736;2023-07-13T14:26:15;3.58;;;1.75;;
30647;SDS011;17683;53.360;9.736;2023-07-13T14:28:44;3.70;;;1.75;;
30647;SDS011;17683;53.360;9.736;2023-07-13T14:31:12;4.93;;;1.98;;
30647;SDS011;17683;53.360;9.736;2023-07-13T14:33:39;3.17;;;1.80;;
30647;SDS011;17683;53.360;9.736;2023-07-13T14:36:25;3.00;;;2.00;;
30647;SDS011;17683;53.360;9.736;2023-07-13T14:38:54;3.38;;;2.13;;
30647;SDS011;17683;53.360;9.736;2023-07-13T14:41:20;4.03;;;2.20;;
30647;SDS011;17683;53.360;9.736;2023-07-13T14:43:46;6.47;;;2.55;;
30647;SDS011;17683;53.360;9.736;2023-07-13T14:46:18;4.30;;;2.00;;
30647;SDS011;17683;53.360;9.736;2023-07-13T14:48:54;2.25;;;1.75;;
30647;SDS011;17683;53.360;9.736;2023-07-13T14:51:26;5.82;;;2.30;;
30647;SDS011;17683;53.360;9.736;2023-07-13T14:53:52;2.63;;;2.00;;
30647;SDS011;17683;53.360;9.736;2023-07-13T14:56:17;5.97;;;1.80;;
30647;SDS011;17683;53.360;9.736;2023-07-13T14:58:43;4.35;;;2.85;;
30647;SDS011;17683;53.360;9.736;2023-07-13T15:01:11;3.33;;;2.00;;
30647;SDS011;17683;53.360;9.736;2023-07-13T15:03:41;3.13;;;1.67;;
30647;SDS011;17683;53.360;9.736;2023-07-13T15:06:11;2.95;;;1.90;;
30647;SDS011;17683;53.360;9.736;2023-07-13T15:08:38;3.97;;;2.35;;
30647;SDS011;17683;53.360;9.736;2023-07-13T15:11:06;2.63;;;1.65;;
30647;SDS011;17683;53.360;9.736;2023-07-13T15:13:32;5.03;;;2.22;;
30647;SDS011;17683;53.360;9.736;2023-07-13T15:15:59;3.63;;;2.20;;
30647;SDS011;17683;53.360;9.736;2023-07-13T15:18:25;2.00;;;1.60;;
30647;SDS011;17683;53.360;9.736;2023-07-13T15:20:52;3.08;;;2.08;;
30647;SDS011;17683;53.360;9.736;2023-07-13T15:23:20;3.92;;;1.80;;
30647;SDS011;17683;53.360;9.736;2023-07-13T15:25:47;3.90;;;2.30;;
30647;SDS011;17683;53.360;9.736;2023-07-13T15:28:13;3.72;;;2.38;;
30647;SDS011;17683;53.360;9.736;2023-07-13T15:30:43;3.28;;;2.13;;
30647;SDS011;17683;53.360;9.736;2023-07-13T15:33:15;3.95;;;1.77;;